首页
METAR-TAF:

METAR-TAF

机场 :

拉斯维加斯, 新墨西哥州, 美国

纬度: 35-39-15N, 经度: 105-08-33W, 海拔: 2096米

当前天气观测

该预报发布于20分钟前的20:53 UTC
风速21节,风向西转西南,有时为29节阵风
温度 25°C
湿度 7%
气压 1015 hPa
能見度: 16.1公里
天空无云

METAR: KLVS 172053Z AUTO 25021G29KT 10SM CLR 25/M13 A2998 RMK AO2 PK WND 25029/2052 SLP057 T02501133 56024

时间: 15:13 (21:13 UTC)

预报

该预报发布于3小时和39分钟前的17:34 UTC
预报有效从17日的 18点(UTC)到 18日的 18点(UTC)
风速9节,风向南转西南,有时为18节阵风
能見度: 10公里
天空无云
从 17日的 2000点(UTC)
风速20节,风向西转西南,有时为32节阵风
能見度: 10公里
天空无云
从 18日的 0200点(UTC)
风速10节,风向西转西南
能見度: 10公里
少量云层高于25000英尺
从 18日的 0900点(UTC)
风速6节,风向多变
能見度: 10公里
天空无云
从 18日的 1600点(UTC)
风速10节,风向
能見度: 10公里
少量云层高于12000英尺

TAF: KLVS 171734Z 1718/1818 20009G18KT P6SM SKC FM172000 25020G32KT P6SM SKC FM180200 24010KT P6SM FEW250 FM180900 VRB06KT P6SM SKC FM181600 17010KT P6SM FEW120

超过4000个机场的气象观测和天气预报(METAR&TAF报告)。

可查询的气象台以黄色和红色小点在地图上表示。

将鼠标移到小点上方,可查看气象台名称。

然后点击查看天气观测和预报。

如需切换地图:点击带黑十字的绿色按钮放大地图;点击带横线的绿色按钮缩小地图;或者点击绿色箭头查看邻近地区的地图。


METAR-TAF: